sensor_id;sensor_type;location;lat;lon;timestamp;P1;durP1;ratioP1;P2;durP2;ratioP2
11255;SDS011;5685;52.384;13.420;2023-07-08T00:00:22;75.90;;;42.87;;
11255;SDS011;5685;52.384;13.420;2023-07-08T00:03:25;75.43;;;42.50;;
11255;SDS011;5685;52.384;13.420;2023-07-08T00:06:29;75.63;;;42.57;;
11255;SDS011;5685;52.384;13.420;2023-07-08T00:09:32;76.00;;;42.77;;
11255;SDS011;5685;52.384;13.420;2023-07-08T00:12:34;75.60;;;42.63;;
11255;SDS011;5685;52.384;13.420;2023-07-08T00:15:37;75.53;;;42.53;;
11255;SDS011;5685;52.384;13.420;2023-07-08T00:18:40;75.70;;;42.60;;
11255;SDS011;5685;52.384;13.420;2023-07-08T00:21:45;75.47;;;42.63;;
11255;SDS011;5685;52.384;13.420;2023-07-08T00:24:47;75.40;;;42.50;;
11255;SDS011;5685;52.384;13.420;2023-07-08T00:27:50;75.63;;;42.67;;
11255;SDS011;5685;52.384;13.420;2023-07-08T00:30:52;76.00;;;42.83;;
11255;SDS011;5685;52.384;13.420;2023-07-08T00:33:57;75.80;;;42.60;;
11255;SDS011;5685;52.384;13.420;2023-07-08T00:37:04;75.70;;;42.63;;
11255;SDS011;5685;52.384;13.420;2023-07-08T00:40:13;74.97;;;42.30;;
11255;SDS011;5685;52.384;13.420;2023-07-08T00:43:17;75.03;;;42.33;;
11255;SDS011;5685;52.384;13.420;2023-07-08T00:46:29;75.40;;;42.60;;
11255;SDS011;5685;52.384;13.420;2023-07-08T00:49:36;74.97;;;42.30;;
11255;SDS011;5685;52.384;13.420;2023-07-08T00:52:44;75.53;;;42.60;;
11255;SDS011;5685;52.384;13.420;2023-07-08T00:55:46;75.30;;;42.57;;
11255;SDS011;5685;52.384;13.420;2023-07-08T00:58:52;74.97;;;42.43;;
11255;SDS011;5685;52.384;13.420;2023-07-08T01:01:56;75.73;;;42.80;;
11255;SDS011;5685;52.384;13.420;2023-07-08T01:05:04;75.27;;;42.53;;
11255;SDS011;5685;52.384;13.420;2023-07-08T01:08:09;75.60;;;42.63;;
11255;SDS011;5685;52.384;13.420;2023-07-08T01:11:12;75.03;;;42.40;;
11255;SDS011;5685;52.384;13.420;2023-07-08T01:14:15;74.90;;;42.27;;
11255;SDS011;5685;52.384;13.420;2023-07-08T01:17:20;75.50;;;42.57;;
11255;SDS011;5685;52.384;13.420;2023-07-08T01:20:23;75.47;;;42.60;;
11255;SDS011;5685;52.384;13.420;2023-07-08T01:23:27;75.63;;;42.73;;
11255;SDS011;5685;52.384;13.420;2023-07-08T01:26:30;75.87;;;42.67;;
11255;SDS011;5685;52.384;13.420;2023-07-08T01:29:34;75.67;;;42.70;;
11255;SDS011;5685;52.384;13.420;2023-07-08T01:32:37;76.03;;;42.87;;
11255;SDS011;5685;52.384;13.420;2023-07-08T01:35:49;75.13;;;42.37;;
11255;SDS011;5685;52.384;13.420;2023-07-08T01:38:54;75.90;;;42.83;;
11255;SDS011;5685;52.384;13.420;2023-07-08T01:41:57;76.10;;;42.83;;
11255;SDS011;5685;52.384;13.420;2023-07-08T01:45:00;75.07;;;42.33;;
11255;SDS011;5685;52.384;13.420;2023-07-08T01:48:03;75.27;;;42.47;;
11255;SDS011;5685;52.384;13.420;2023-07-08T01:51:10;75.53;;;42.57;;
11255;SDS011;5685;52.384;13.420;2023-07-08T01:54:14;75.97;;;42.83;;
11255;SDS011;5685;52.384;13.420;2023-07-08T01:57:17;75.63;;;42.60;;
11255;SDS011;5685;52.384;13.420;2023-07-08T02:00:20;75.60;;;42.50;;
11255;SDS011;5685;52.384;13.420;2023-07-08T02:03:23;75.00;;;42.30;;
11255;SDS011;5685;52.384;13.420;2023-07-08T02:06:26;75.93;;;42.77;;
11255;SDS011;5685;52.384;13.420;2023-07-08T02:09:30;75.83;;;42.70;;
11255;SDS011;5685;52.384;13.420;2023-07-08T02:12:33;74.93;;;42.27;;
11255;SDS011;5685;52.384;13.420;2023-07-08T02:15:35;75.43;;;42.50;;
11255;SDS011;5685;52.384;13.420;2023-07-08T02:18:38;75.57;;;42.50;;
11255;SDS011;5685;52.384;13.420;2023-07-08T02:21:40;74.77;;;42.20;;
11255;SDS011;5685;52.384;13.420;2023-07-08T02:24:45;75.63;;;42.60;;
11255;SDS011;5685;52.384;13.420;2023-07-08T02:27:47;75.37;;;42.43;;
11255;SDS011;5685;52.384;13.420;2023-07-08T02:30:50;75.60;;;42.50;;
11255;SDS011;5685;52.384;13.420;2023-07-08T02:33:53;75.50;;;42.47;;
11255;SDS011;5685;52.384;13.420;2023-07-08T02:36:56;74.90;;;42.13;;
11255;SDS011;5685;52.384;13.420;2023-07-08T02:40:00;74.97;;;42.20;;
11255;SDS011;5685;52.384;13.420;2023-07-08T02:43:02;75.93;;;42.70;;
11255;SDS011;5685;52.384;13.420;2023-07-08T02:46:05;74.87;;;42.07;;
11255;SDS011;5685;52.384;13.420;2023-07-08T02:49:08;76.00;;;42.67;;
11255;SDS011;5685;52.384;13.420;2023-07-08T02:52:10;75.13;;;42.27;;
11255;SDS011;5685;52.384;13.420;2023-07-08T02:55:15;74.50;;;41.87;;
11255;SDS011;5685;52.384;13.420;2023-07-08T02:58:18;75.07;;;42.20;;
11255;SDS011;5685;52.384;13.420;2023-07-08T03:01:20;75.20;;;42.23;;
11255;SDS011;5685;52.384;13.420;2023-07-08T03:04:23;74.97;;;42.10;;
11255;SDS011;5685;52.384;13.420;2023-07-08T03:07:26;74.93;;;42.07;;
11255;SDS011;5685;52.384;13.420;2023-07-08T03:10:30;75.40;;;42.33;;
11255;SDS011;5685;52.384;13.420;2023-07-08T03:13:33;75.23;;;42.27;;
11255;SDS011;5685;52.384;13.420;2023-07-08T03:16:35;75.07;;;42.13;;
11255;SDS011;5685;52.384;13.420;2023-07-08T03:19:38;74.73;;;41.97;;
11255;SDS011;5685;52.384;13.420;2023-07-08T03:22:41;75.30;;;42.30;;
11255;SDS011;5685;52.384;13.420;2023-07-08T03:25:45;75.03;;;42.13;;
11255;SDS011;5685;52.384;13.420;2023-07-08T03:28:48;75.67;;;42.33;;
11255;SDS011;5685;52.384;13.420;2023-07-08T03:31:51;75.47;;;42.33;;
11255;SDS011;5685;52.384;13.420;2023-07-08T03:34:53;75.40;;;42.23;;
11255;SDS011;5685;52.384;13.420;2023-07-08T03:37:56;75.03;;;42.07;;
11255;SDS011;5685;52.384;13.420;2023-07-08T03:41:00;74.87;;;41.90;;
11255;SDS011;5685;52.384;13.420;2023-07-08T03:44:03;75.57;;;42.23;;
11255;SDS011;5685;52.384;13.420;2023-07-08T03:47:07;75.77;;;42.43;;
11255;SDS011;5685;52.384;13.420;2023-07-08T03:50:11;74.97;;;42.00;;
11255;SDS011;5685;52.384;13.420;2023-07-08T03:53:19;74.23;;;41.67;;
11255;SDS011;5685;52.384;13.420;2023-07-08T03:56:23;75.43;;;42.20;;
11255;SDS011;5685;52.384;13.420;2023-07-08T03:59:26;75.53;;;42.17;;
11255;SDS011;5685;52.384;13.420;2023-07-08T04:02:29;74.97;;;41.90;;
11255;SDS011;5685;52.384;13.420;2023-07-08T04:05:31;75.17;;;42.00;;
11255;SDS011;5685;52.384;13.420;2023-07-08T04:08:34;75.47;;;42.10;;
11255;SDS011;5685;52.384;13.420;2023-07-08T04:11:38;75.77;;;42.30;;
11255;SDS011;5685;52.384;13.420;2023-07-08T04:14:41;75.17;;;41.97;;
11255;SDS011;5685;52.384;13.420;2023-07-08T04:17:44;75.53;;;42.20;;
11255;SDS011;5685;52.384;13.420;2023-07-08T04:20:48;75.23;;;42.10;;
11255;SDS011;5685;52.384;13.420;2023-07-08T04:23:52;75.47;;;42.13;;
11255;SDS011;5685;52.384;13.420;2023-07-08T04:26:56;75.13;;;42.10;;
11255;SDS011;5685;52.384;13.420;2023-07-08T04:29:59;75.43;;;42.47;;
11255;SDS011;5685;52.384;13.420;2023-07-08T04:33:03;75.57;;;42.30;;
11255;SDS011;5685;52.384;13.420;2023-07-08T04:36:09;74.40;;;41.60;;
11255;SDS011;5685;52.384;13.420;2023-07-08T04:39:14;75.00;;;41.90;;
11255;SDS011;5685;52.384;13.420;2023-07-08T04:42:19;75.50;;;42.07;;
11255;SDS011;5685;52.384;13.420;2023-07-08T04:45:22;74.53;;;41.63;;
11255;SDS011;5685;52.384;13.420;2023-07-08T04:48:25;74.73;;;41.73;;
11255;SDS011;5685;52.384;13.420;2023-07-08T04:51:27;75.03;;;41.90;;
11255;SDS011;5685;52.384;13.420;2023-07-08T04:54:30;75.00;;;41.90;;
11255;SDS011;5685;52.384;13.420;2023-07-08T04:57:34;75.37;;;42.07;;
11255;SDS011;5685;52.384;13.420;2023-07-08T05:00:37;75.13;;;41.93;;
11255;SDS011;5685;52.384;13.420;2023-07-08T05:03:39;74.47;;;41.67;;
11255;SDS011;5685;52.384;13.420;2023-07-08T05:06:42;74.43;;;41.57;;
11255;SDS011;5685;52.384;13.420;2023-07-08T05:09:45;75.03;;;41.90;;
11255;SDS011;5685;52.384;13.420;2023-07-08T05:12:49;75.63;;;42.37;;
11255;SDS011;5685;52.384;13.420;2023-07-08T05:15:51;74.60;;;41.70;;
11255;SDS011;5685;52.384;13.420;2023-07-08T05:18:54;75.03;;;42.03;;
11255;SDS011;5685;52.384;13.420;2023-07-08T05:21:57;74.23;;;41.53;;
11255;SDS011;5685;52.384;13.420;2023-07-08T05:24:59;74.97;;;41.97;;
11255;SDS011;5685;52.384;13.420;2023-07-08T05:28:04;75.53;;;42.27;;
11255;SDS011;5685;52.384;13.420;2023-07-08T05:31:06;75.10;;;42.07;;
11255;SDS011;5685;52.384;13.420;2023-07-08T05:34:09;74.40;;;41.77;;
11255;SDS011;5685;52.384;13.420;2023-07-08T05:37:12;74.87;;;41.93;;
11255;SDS011;5685;52.384;13.420;2023-07-08T05:40:15;74.57;;;41.70;;
11255;SDS011;5685;52.384;13.420;2023-07-08T05:43:19;74.93;;;41.87;;
11255;SDS011;5685;52.384;13.420;2023-07-08T05:46:22;75.27;;;42.00;;
11255;SDS011;5685;52.384;13.420;2023-07-08T05:49:25;74.80;;;41.73;;
11255;SDS011;5685;52.384;13.420;2023-07-08T05:52:27;74.90;;;41.67;;
11255;SDS011;5685;52.384;13.420;2023-07-08T05:55:30;74.93;;;41.80;;
11255;SDS011;5685;52.384;13.420;2023-07-08T05:58:34;75.07;;;41.77;;
11255;SDS011;5685;52.384;13.420;2023-07-08T06:01:37;74.80;;;41.80;;
11255;SDS011;5685;52.384;13.420;2023-07-08T06:04:40;74.57;;;41.53;;
11255;SDS011;5685;52.384;13.420;2023-07-08T06:07:43;74.17;;;41.53;;
11255;SDS011;5685;52.384;13.420;2023-07-08T06:10:45;74.83;;;41.90;;
11255;SDS011;5685;52.384;13.420;2023-07-08T06:13:50;74.73;;;41.77;;
11255;SDS011;5685;52.384;13.420;2023-07-08T06:16:53;74.97;;;41.97;;
11255;SDS011;5685;52.384;13.420;2023-07-08T06:19:56;74.40;;;41.63;;
11255;SDS011;5685;52.384;13.420;2023-07-08T06:22:58;74.23;;;41.47;;
11255;SDS011;5685;52.384;13.420;2023-07-08T06:26:01;74.13;;;41.40;;
11255;SDS011;5685;52.384;13.420;2023-07-08T06:29:05;74.40;;;41.73;;
11255;SDS011;5685;52.384;13.420;2023-07-08T06:32:08;74.17;;;41.43;;
11255;SDS011;5685;52.384;13.420;2023-07-08T06:35:10;74.77;;;41.77;;
11255;SDS011;5685;52.384;13.420;2023-07-08T06:38:13;74.90;;;41.90;;
11255;SDS011;5685;52.384;13.420;2023-07-08T06:41:16;74.77;;;41.87;;
11255;SDS011;5685;52.384;13.420;2023-07-08T06:44:20;74.13;;;41.53;;
11255;SDS011;5685;52.384;13.420;2023-07-08T06:47:23;74.73;;;41.93;;
11255;SDS011;5685;52.384;13.420;2023-07-08T06:50:25;74.93;;;41.87;;
11255;SDS011;5685;52.384;13.420;2023-07-08T06:53:28;74.87;;;41.90;;
11255;SDS011;5685;52.384;13.420;2023-07-08T06:56:31;74.43;;;41.67;;
11255;SDS011;5685;52.384;13.420;2023-07-08T06:59:35;74.83;;;42.03;;
11255;SDS011;5685;52.384;13.420;2023-07-08T07:02:38;74.40;;;41.80;;
11255;SDS011;5685;52.384;13.420;2023-07-08T07:05:40;74.93;;;42.03;;
11255;SDS011;5685;52.384;13.420;2023-07-08T07:08:44;75.50;;;42.37;;
11255;SDS011;5685;52.384;13.420;2023-07-08T07:11:46;74.60;;;41.77;;
11255;SDS011;5685;52.384;13.420;2023-07-08T07:14:50;74.97;;;42.10;;
11255;SDS011;5685;52.384;13.420;2023-07-08T07:17:53;74.30;;;41.67;;
11255;SDS011;5685;52.384;13.420;2023-07-08T07:20:57;74.67;;;41.77;;
11255;SDS011;5685;52.384;13.420;2023-07-08T07:24:00;74.53;;;41.83;;
11255;SDS011;5685;52.384;13.420;2023-07-08T07:27:03;74.70;;;41.97;;
11255;SDS011;5685;52.384;13.420;2023-07-08T07:30:08;74.97;;;42.07;;
11255;SDS011;5685;52.384;13.420;2023-07-08T07:33:14;74.10;;;41.70;;
11255;SDS011;5685;52.384;13.420;2023-07-08T07:36:17;75.40;;;42.30;;
11255;SDS011;5685;52.384;13.420;2023-07-08T07:39:20;74.43;;;41.83;;
11255;SDS011;5685;52.384;13.420;2023-07-08T07:42:23;75.20;;;42.13;;
11255;SDS011;5685;52.384;13.420;2023-07-08T07:45:29;74.53;;;41.83;;
11255;SDS011;5685;52.384;13.420;2023-07-08T07:48:31;74.47;;;41.87;;
11255;SDS011;5685;52.384;13.420;2023-07-08T07:51:34;74.60;;;41.97;;
11255;SDS011;5685;52.384;13.420;2023-07-08T07:54:37;75.17;;;42.23;;
11255;SDS011;5685;52.384;13.420;2023-07-08T07:57:40;75.03;;;42.17;;
11255;SDS011;5685;52.384;13.420;2023-07-08T08:00:47;74.97;;;42.10;;
11255;SDS011;5685;52.384;13.420;2023-07-08T08:03:49;74.83;;;42.03;;
11255;SDS011;5685;52.384;13.420;2023-07-08T08:06:52;74.93;;;42.17;;
11255;SDS011;5685;52.384;13.420;2023-07-08T08:09:55;79.30;;;47.00;;
11255;SDS011;5685;52.384;13.420;2023-07-08T08:12:57;75.57;;;42.97;;
11255;SDS011;5685;52.384;13.420;2023-07-08T08:16:02;75.50;;;42.60;;
11255;SDS011;5685;52.384;13.420;2023-07-08T08:19:05;74.87;;;42.20;;
11255;SDS011;5685;52.384;13.420;2023-07-08T08:22:07;75.17;;;42.37;;
11255;SDS011;5685;52.384;13.420;2023-07-08T08:25:10;74.50;;;41.97;;
11255;SDS011;5685;52.384;13.420;2023-07-08T08:28:13;74.30;;;41.90;;
11255;SDS011;5685;52.384;13.420;2023-07-08T08:31:17;74.73;;;42.03;;
11255;SDS011;5685;52.384;13.420;2023-07-08T08:34:20;75.30;;;42.27;;
11255;SDS011;5685;52.384;13.420;2023-07-08T08:37:23;75.43;;;42.33;;
11255;SDS011;5685;52.384;13.420;2023-07-08T08:40:28;75.00;;;42.13;;
11255;SDS011;5685;52.384;13.420;2023-07-08T08:43:33;74.97;;;42.03;;
11255;SDS011;5685;52.384;13.420;2023-07-08T08:46:40;74.60;;;41.93;;
11255;SDS011;5685;52.384;13.420;2023-07-08T08:49:45;75.00;;;42.10;;
11255;SDS011;5685;52.384;13.420;2023-07-08T08:52:52;74.37;;;41.67;;
11255;SDS011;5685;52.384;13.420;2023-07-08T08:56:03;75.07;;;42.20;;
11255;SDS011;5685;52.384;13.420;2023-07-08T08:59:11;74.37;;;41.67;;
11255;SDS011;5685;52.384;13.420;2023-07-08T09:02:25;74.50;;;41.87;;
11255;SDS011;5685;52.384;13.420;2023-07-08T09:05:32;75.27;;;42.20;;
11255;SDS011;5685;52.384;13.420;2023-07-08T09:08:35;74.83;;;41.90;;
11255;SDS011;5685;52.384;13.420;2023-07-08T09:11:39;74.60;;;41.80;;
11255;SDS011;5685;52.384;13.420;2023-07-08T09:14:44;74.83;;;41.87;;
11255;SDS011;5685;52.384;13.420;2023-07-08T09:17:48;75.13;;;42.13;;
11255;SDS011;5685;52.384;13.420;2023-07-08T09:20:53;74.60;;;41.77;;
11255;SDS011;5685;52.384;13.420;2023-07-08T09:24:00;74.80;;;41.90;;
11255;SDS011;5685;52.384;13.420;2023-07-08T09:27:04;74.97;;;41.97;;
11255;SDS011;5685;52.384;13.420;2023-07-08T09:30:08;75.50;;;42.23;;
11255;SDS011;5685;52.384;13.420;2023-07-08T09:33:15;75.23;;;42.17;;
11255;SDS011;5685;52.384;13.420;2023-07-08T09:36:18;74.90;;;42.03;;
11255;SDS011;5685;52.384;13.420;2023-07-08T09:39:24;75.03;;;42.10;;
11255;SDS011;5685;52.384;13.420;2023-07-08T09:42:28;75.50;;;42.27;;
11255;SDS011;5685;52.384;13.420;2023-07-08T09:45:39;75.20;;;42.20;;
11255;SDS011;5685;52.384;13.420;2023-07-08T09:48:44;75.13;;;42.10;;
11255;SDS011;5685;52.384;13.420;2023-07-08T09:51:47;75.00;;;42.07;;
11255;SDS011;5685;52.384;13.420;2023-07-08T09:54:51;74.93;;;42.10;;
11255;SDS011;5685;52.384;13.420;2023-07-08T09:57:54;75.07;;;42.13;;
11255;SDS011;5685;52.384;13.420;2023-07-08T10:01:01;74.87;;;42.07;;
11255;SDS011;5685;52.384;13.420;2023-07-08T10:04:12;75.20;;;42.13;;
11255;SDS011;5685;52.384;13.420;2023-07-08T10:07:16;74.73;;;41.97;;
11255;SDS011;5685;52.384;13.420;2023-07-08T10:10:22;75.13;;;42.07;;
11255;SDS011;5685;52.384;13.420;2023-07-08T10:13:28;75.63;;;42.30;;
11255;SDS011;5685;52.384;13.420;2023-07-08T10:16:38;75.13;;;42.10;;
11255;SDS011;5685;52.384;13.420;2023-07-08T10:19:42;75.10;;;42.17;;
11255;SDS011;5685;52.384;13.420;2023-07-08T10:22:49;74.83;;;41.93;;
11255;SDS011;5685;52.384;13.420;2023-07-08T10:26:00;74.97;;;42.07;;
11255;SDS011;5685;52.384;13.420;2023-07-08T10:29:11;74.83;;;42.00;;
11255;SDS011;5685;52.384;13.420;2023-07-08T10:32:35;74.83;;;41.97;;
11255;SDS011;5685;52.384;13.420;2023-07-08T10:35:45;74.90;;;41.93;;
11255;SDS011;5685;52.384;13.420;2023-07-08T10:38:59;74.93;;;42.03;;
11255;SDS011;5685;52.384;13.420;2023-07-08T10:42:19;75.00;;;42.00;;
11255;SDS011;5685;52.384;13.420;2023-07-08T10:45:30;74.73;;;41.97;;
11255;SDS011;5685;52.384;13.420;2023-07-08T10:48:42;75.13;;;42.20;;
11255;SDS011;5685;52.384;13.420;2023-07-08T10:51:53;75.23;;;42.27;;
11255;SDS011;5685;52.384;13.420;2023-07-08T10:55:09;74.90;;;42.10;;
11255;SDS011;5685;52.384;13.420;2023-07-08T11:01:50;75.00;;;42.13;;
11255;SDS011;5685;52.384;13.420;2023-07-08T11:05:18;74.37;;;41.77;;
11255;SDS011;5685;52.384;13.420;2023-07-08T11:08:27;74.60;;;42.00;;
11255;SDS011;5685;52.384;13.420;2023-07-08T11:11:32;74.70;;;42.07;;
11255;SDS011;5685;52.384;13.420;2023-07-08T11:14:38;74.80;;;42.07;;
11255;SDS011;5685;52.384;13.420;2023-07-08T11:17:45;74.47;;;42.03;;
11255;SDS011;5685;52.384;13.420;2023-07-08T11:20:55;74.83;;;42.13;;
11255;SDS011;5685;52.384;13.420;2023-07-08T11:24:02;75.23;;;42.33;;
11255;SDS011;5685;52.384;13.420;2023-07-08T11:27:08;75.33;;;42.30;;
11255;SDS011;5685;52.384;13.420;2023-07-08T11:30:20;75.57;;;42.63;;
11255;SDS011;5685;52.384;13.420;2023-07-08T11:33:25;75.30;;;42.30;;
11255;SDS011;5685;52.384;13.420;2023-07-08T11:36:28;75.37;;;42.50;;
11255;SDS011;5685;52.384;13.420;2023-07-08T11:39:33;75.13;;;42.33;;
11255;SDS011;5685;52.384;13.420;2023-07-08T11:42:41;75.33;;;42.40;;
11255;SDS011;5685;52.384;13.420;2023-07-08T11:45:45;75.03;;;42.27;;
11255;SDS011;5685;52.384;13.420;2023-07-08T11:48:48;75.03;;;42.30;;
11255;SDS011;5685;52.384;13.420;2023-07-08T11:51:52;75.43;;;42.60;;
11255;SDS011;5685;52.384;13.420;2023-07-08T11:54:59;74.30;;;42.00;;
11255;SDS011;5685;52.384;13.420;2023-07-08T11:58:06;75.30;;;42.47;;
11255;SDS011;5685;52.384;13.420;2023-07-08T12:01:16;75.23;;;42.50;;
11255;SDS011;5685;52.384;13.420;2023-07-08T12:04:28;74.70;;;42.10;;
11255;SDS011;5685;52.384;13.420;2023-07-08T12:07:32;74.90;;;42.23;;
11255;SDS011;5685;52.384;13.420;2023-07-08T12:10:40;75.77;;;42.70;;
11255;SDS011;5685;52.384;13.420;2023-07-08T12:13:47;75.33;;;42.47;;
11255;SDS011;5685;52.384;13.420;2023-07-08T12:16:50;74.90;;;42.30;;
11255;SDS011;5685;52.384;13.420;2023-07-08T12:19:52;75.57;;;42.63;;
11255;SDS011;5685;52.384;13.420;2023-07-08T12:22:57;75.07;;;42.40;;
11255;SDS011;5685;52.384;13.420;2023-07-08T12:26:01;75.03;;;42.30;;
11255;SDS011;5685;52.384;13.420;2023-07-08T12:29:05;75.57;;;42.57;;
11255;SDS011;5685;52.384;13.420;2023-07-08T12:32:09;75.53;;;42.63;;
11255;SDS011;5685;52.384;13.420;2023-07-08T12:35:18;75.33;;;42.37;;
11255;SDS011;5685;52.384;13.420;2023-07-08T12:38:26;75.83;;;42.87;;
11255;SDS011;5685;52.384;13.420;2023-07-08T12:41:34;75.50;;;42.63;;
11255;SDS011;5685;52.384;13.420;2023-07-08T12:44:37;75.70;;;42.80;;
11255;SDS011;5685;52.384;13.420;2023-07-08T12:47:44;75.30;;;42.60;;
11255;SDS011;5685;52.384;13.420;2023-07-08T12:50:46;75.53;;;42.67;;
11255;SDS011;5685;52.384;13.420;2023-07-08T12:53:50;75.07;;;42.53;;
11255;SDS011;5685;52.384;13.420;2023-07-08T12:56:55;75.30;;;42.63;;
11255;SDS011;5685;52.384;13.420;2023-07-08T12:59:58;75.33;;;42.60;;
11255;SDS011;5685;52.384;13.420;2023-07-08T13:03:02;75.60;;;42.80;;
11255;SDS011;5685;52.384;13.420;2023-07-08T13:06:07;75.07;;;42.50;;
11255;SDS011;5685;52.384;13.420;2023-07-08T13:09:23;75.43;;;42.60;;
11255;SDS011;5685;52.384;13.420;2023-07-08T13:12:35;75.93;;;43.00;;
11255;SDS011;5685;52.384;13.420;2023-07-08T13:15:40;76.00;;;43.03;;
11255;SDS011;5685;52.384;13.420;2023-07-08T13:18:43;74.83;;;42.47;;
11255;SDS011;5685;52.384;13.420;2023-07-08T13:21:46;75.80;;;42.93;;
11255;SDS011;5685;52.384;13.420;2023-07-08T13:24:49;75.90;;;43.03;;
11255;SDS011;5685;52.384;13.420;2023-07-08T13:28:11;75.10;;;42.57;;
11255;SDS011;5685;52.384;13.420;2023-07-08T13:31:17;75.43;;;42.73;;
11255;SDS011;5685;52.384;13.420;2023-07-08T13:34:23;75.63;;;42.97;;
11255;SDS011;5685;52.384;13.420;2023-07-08T13:37:26;75.67;;;42.93;;
11255;SDS011;5685;52.384;13.420;2023-07-08T13:40:29;75.50;;;42.83;;
11255;SDS011;5685;52.384;13.420;2023-07-08T13:43:34;75.63;;;43.00;;
11255;SDS011;5685;52.384;13.420;2023-07-08T13:46:39;75.83;;;43.00;;
11255;SDS011;5685;52.384;13.420;2023-07-08T13:49:45;75.53;;;42.80;;
11255;SDS011;5685;52.384;13.420;2023-07-08T13:52:53;75.80;;;43.03;;
11255;SDS011;5685;52.384;13.420;2023-07-08T13:55:59;75.67;;;43.07;;
11255;SDS011;5685;52.384;13.420;2023-07-08T13:59:05;76.00;;;43.17;;
11255;SDS011;5685;52.384;13.420;2023-07-08T14:02:13;75.77;;;43.10;;
11255;SDS011;5685;52.384;13.420;2023-07-08T14:05:17;75.83;;;43.00;;
11255;SDS011;5685;52.384;13.420;2023-07-08T14:08:21;75.90;;;43.23;;
11255;SDS011;5685;52.384;13.420;2023-07-08T14:11:24;75.83;;;43.07;;
11255;SDS011;5685;52.384;13.420;2023-07-08T14:14:28;76.13;;;43.30;;
11255;SDS011;5685;52.384;13.420;2023-07-08T14:17:31;76.27;;;43.40;;
11255;SDS011;5685;52.384;13.420;2023-07-08T14:20:33;75.97;;;43.20;;
11255;SDS011;5685;52.384;13.420;2023-07-08T14:23:36;76.23;;;43.47;;
11255;SDS011;5685;52.384;13.420;2023-07-08T14:26:41;75.20;;;42.90;;
11255;SDS011;5685;52.384;13.420;2023-07-08T14:29:47;75.87;;;43.37;;
11255;SDS011;5685;52.384;13.420;2023-07-08T14:32:51;75.77;;;43.10;;
11255;SDS011;5685;52.384;13.420;2023-07-08T14:35:53;75.27;;;42.90;;
11255;SDS011;5685;52.384;13.420;2023-07-08T14:38:56;75.33;;;42.97;;
11255;SDS011;5685;52.384;13.420;2023-07-08T14:42:00;75.87;;;43.23;;
11255;SDS011;5685;52.384;13.420;2023-07-08T14:45:07;76.33;;;43.50;;
11255;SDS011;5685;52.384;13.420;2023-07-08T14:48:10;75.80;;;43.23;;
11255;SDS011;5685;52.384;13.420;2023-07-08T14:51:13;75.53;;;43.10;;
11255;SDS011;5685;52.384;13.420;2023-07-08T14:54:17;76.30;;;43.47;;
11255;SDS011;5685;52.384;13.420;2023-07-08T14:57:19;75.97;;;43.47;;
11255;SDS011;5685;52.384;13.420;2023-07-08T15:00:29;76.10;;;43.43;;
11255;SDS011;5685;52.384;13.420;2023-07-08T15:03:32;76.13;;;43.50;;
11255;SDS011;5685;52.384;13.420;2023-07-08T15:06:34;75.43;;;43.13;;
11255;SDS011;5685;52.384;13.420;2023-07-08T15:09:37;76.33;;;43.50;;
11255;SDS011;5685;52.384;13.420;2023-07-08T15:12:40;75.63;;;43.10;;
11255;SDS011;5685;52.384;13.420;2023-07-08T15:15:44;76.23;;;43.57;;
11255;SDS011;5685;52.384;13.420;2023-07-08T15:18:46;75.93;;;43.47;;
11255;SDS011;5685;52.384;13.420;2023-07-08T15:21:49;76.53;;;43.67;;
11255;SDS011;5685;52.384;13.420;2023-07-08T15:24:52;75.47;;;43.20;;
11255;SDS011;5685;52.384;13.420;2023-07-08T15:27:55;75.17;;;43.00;;
11255;SDS011;5685;52.384;13.420;2023-07-08T15:30:59;75.97;;;43.43;;
11255;SDS011;5685;52.384;13.420;2023-07-08T15:34:04;75.53;;;43.27;;
11255;SDS011;5685;52.384;13.420;2023-07-08T15:37:10;76.20;;;43.67;;
11255;SDS011;5685;52.384;13.420;2023-07-08T15:40:13;76.33;;;43.60;;
11255;SDS011;5685;52.384;13.420;2023-07-08T15:43:16;75.83;;;43.40;;
11255;SDS011;5685;52.384;13.420;2023-07-08T15:46:20;75.83;;;43.43;;
11255;SDS011;5685;52.384;13.420;2023-07-08T15:49:24;75.57;;;43.30;;
11255;SDS011;5685;52.384;13.420;2023-07-08T15:52:30;75.67;;;43.33;;
11255;SDS011;5685;52.384;13.420;2023-07-08T15:55:34;75.80;;;43.53;;
11255;SDS011;5685;52.384;13.420;2023-07-08T15:58:41;76.23;;;43.80;;
11255;SDS011;5685;52.384;13.420;2023-07-08T16:01:46;76.00;;;43.60;;
11255;SDS011;5685;52.384;13.420;2023-07-08T16:04:49;76.30;;;43.73;;
11255;SDS011;5685;52.384;13.420;2023-07-08T16:07:52;76.07;;;43.67;;
11255;SDS011;5685;52.384;13.420;2023-07-08T16:10:56;76.27;;;43.80;;
11255;SDS011;5685;52.384;13.420;2023-07-08T16:14:00;75.50;;;43.30;;
11255;SDS011;5685;52.384;13.420;2023-07-08T16:17:06;75.33;;;43.33;;
11255;SDS011;5685;52.384;13.420;2023-07-08T16:20:18;75.57;;;43.37;;
11255;SDS011;5685;52.384;13.420;2023-07-08T16:23:21;76.23;;;43.87;;
11255;SDS011;5685;52.384;13.420;2023-07-08T16:26:24;75.57;;;43.47;;
11255;SDS011;5685;52.384;13.420;2023-07-08T16:29:27;75.93;;;43.57;;
11255;SDS011;5685;52.384;13.420;2023-07-08T16:32:31;76.20;;;43.70;;
11255;SDS011;5685;52.384;13.420;2023-07-08T16:35:33;75.83;;;43.57;;
11255;SDS011;5685;52.384;13.420;2023-07-08T16:38:36;75.87;;;43.70;;
11255;SDS011;5685;52.384;13.420;2023-07-08T16:41:39;76.87;;;44.20;;
11255;SDS011;5685;52.384;13.420;2023-07-08T16:44:41;76.53;;;44.00;;
11255;SDS011;5685;52.384;13.420;2023-07-08T16:47:45;76.07;;;43.80;;
11255;SDS011;5685;52.384;13.420;2023-07-08T16:50:48;75.90;;;43.60;;
11255;SDS011;5685;52.384;13.420;2023-07-08T16:53:51;76.57;;;44.00;;
11255;SDS011;5685;52.384;13.420;2023-07-08T16:56:58;75.67;;;43.67;;
11255;SDS011;5685;52.384;13.420;2023-07-08T17:00:01;75.77;;;43.63;;
11255;SDS011;5685;52.384;13.420;2023-07-08T17:03:07;75.87;;;43.80;;
11255;SDS011;5685;52.384;13.420;2023-07-08T17:06:10;75.77;;;43.73;;
11255;SDS011;5685;52.384;13.420;2023-07-08T17:09:13;76.40;;;44.00;;
11255;SDS011;5685;52.384;13.420;2023-07-08T17:12:16;75.90;;;43.70;;
11255;SDS011;5685;52.384;13.420;2023-07-08T17:15:19;76.43;;;43.97;;
11255;SDS011;5685;52.384;13.420;2023-07-08T17:18:24;76.13;;;44.00;;
11255;SDS011;5685;52.384;13.420;2023-07-08T17:21:28;76.33;;;43.93;;
11255;SDS011;5685;52.384;13.420;2023-07-08T17:24:30;76.33;;;44.00;;
11255;SDS011;5685;52.384;13.420;2023-07-08T17:27:33;75.70;;;43.60;;
11255;SDS011;5685;52.384;13.420;2023-07-08T17:30:37;76.67;;;44.13;;
11255;SDS011;5685;52.384;13.420;2023-07-08T17:33:42;76.57;;;44.17;;
11255;SDS011;5685;52.384;13.420;2023-07-08T17:36:45;76.47;;;44.20;;
11255;SDS011;5685;52.384;13.420;2023-07-08T17:39:47;76.27;;;44.00;;
11255;SDS011;5685;52.384;13.420;2023-07-08T17:42:51;76.03;;;43.97;;
11255;SDS011;5685;52.384;13.420;2023-07-08T17:45:55;76.50;;;44.13;;
11255;SDS011;5685;52.384;13.420;2023-07-08T17:48:59;76.53;;;44.17;;
11255;SDS011;5685;52.384;13.420;2023-07-08T17:52:03;76.40;;;44.10;;
11255;SDS011;5685;52.384;13.420;2023-07-08T17:55:07;76.50;;;44.17;;
11255;SDS011;5685;52.384;13.420;2023-07-08T17:58:10;76.53;;;44.33;;
11255;SDS011;5685;52.384;13.420;2023-07-08T18:01:14;75.80;;;43.80;;